sensor_id;sensor_type;location;lat;lon;timestamp;P1;P2;P0
64861;PMS5003;62652;42.274;-71.436;2022-10-16T00:00:00;58.33;46.87;33.50
64861;PMS5003;62652;42.274;-71.436;2022-10-16T00:01:04;59.33;48.47;34.83
64861;PMS5003;62652;42.274;-71.436;2022-10-16T00:02:00;67.17;54.30;40.63
64861;PMS5003;62652;42.274;-71.436;2022-10-16T00:03:00;60.10;49.33;35.73
64861;PMS5003;62652;42.274;-71.436;2022-10-16T00:04:01;58.00;47.73;34.27
64861;PMS5003;62652;42.274;-71.436;2022-10-16T00:05:00;82.93;76.37;49.97
64861;PMS5003;62652;42.274;-71.436;2022-10-16T00:06:00;74.83;64.53;42.50
64861;PMS5003;62652;42.274;-71.436;2022-10-16T00:07:00;61.57;48.83;34.57
64861;PMS5003;62652;42.274;-71.436;2022-10-16T00:08:00;54.43;44.50;31.10
64861;PMS5003;62652;42.274;-71.436;2022-10-16T00:09:00;51.50;43.27;31.03
64861;PMS5003;62652;42.274;-71.436;2022-10-16T00:10:00;43.63;37.77;27.40
64861;PMS5003;62652;42.274;-71.436;2022-10-16T00:11:01;49.60;41.43;28.93
64861;PMS5003;62652;42.274;-71.436;2022-10-16T00:12:00;49.07;41.67;28.87
64861;PMS5003;62652;42.274;-71.436;2022-10-16T00:13:00;55.77;46.23;31.50
64861;PMS5003;62652;42.274;-71.436;2022-10-16T00:14:01;56.40;46.30;31.83
64861;PMS5003;62652;42.274;-71.436;2022-10-16T00:15:00;53.13;43.93;30.00
64861;PMS5003;62652;42.274;-71.436;2022-10-16T00:16:00;48.27;40.43;29.00
64861;PMS5003;62652;42.274;-71.436;2022-10-16T00:17:00;46.40;38.90;28.87
64861;PMS5003;62652;42.274;-71.436;2022-10-16T00:18:00;52.17;43.67;30.50
64861;PMS5003;62652;42.274;-71.436;2022-10-16T00:19:00;46.10;38.47;27.87
64861;PMS5003;62652;42.274;-71.436;2022-10-16T00:20:00;42.53;36.40;25.70
64861;PMS5003;62652;42.274;-71.436;2022-10-16T00:21:02;34.10;31.17;22.73
64861;PMS5003;62652;42.274;-71.436;2022-10-16T00:22:00;29.13;28.50;20.90
64861;PMS5003;62652;42.274;-71.436;2022-10-16T00:23:00;28.70;27.97;21.10
64861;PMS5003;62652;42.274;-71.436;2022-10-16T00:24:01;29.50;29.13;21.47
64861;PMS5003;62652;42.274;-71.436;2022-10-16T00:25:00;27.33;26.53;20.83
64861;PMS5003;62652;42.274;-71.436;2022-10-16T00:26:01;29.10;28.37;21.77
64861;PMS5003;62652;42.274;-71.436;2022-10-16T00:27:00;38.97;33.53;23.67
64861;PMS5003;62652;42.274;-71.436;2022-10-16T00:28:00;47.57;40.03;27.37
64861;PMS5003;62652;42.274;-71.436;2022-10-16T00:29:00;35.70;32.17;23.10
64861;PMS5003;62652;42.274;-71.436;2022-10-16T00:30:00;30.20;29.50;20.30
64861;PMS5003;62652;42.274;-71.436;2022-10-16T00:31:02;26.47;25.80;19.90
64861;PMS5003;62652;42.274;-71.436;2022-10-16T00:32:00;27.40;27.13;20.27
64861;PMS5003;62652;42.274;-71.436;2022-10-16T00:33:00;36.93;32.83;23.73
64861;PMS5003;62652;42.274;-71.436;2022-10-16T00:34:00;37.87;31.97;22.73
64861;PMS5003;62652;42.274;-71.436;2022-10-16T00:35:00;28.40;26.27;20.13
64861;PMS5003;62652;42.274;-71.436;2022-10-16T00:36:00;27.93;27.30;21.03
64861;PMS5003;62652;42.274;-71.436;2022-10-16T00:37:00;56.10;45.57;29.47
64861;PMS5003;62652;42.274;-71.436;2022-10-16T00:38:00;53.47;44.23;29.67
64861;PMS5003;62652;42.274;-71.436;2022-10-16T00:39:01;38.00;34.07;23.47
64861;PMS5003;62652;42.274;-71.436;2022-10-16T00:40:00;43.17;35.83;25.57
64861;PMS5003;62652;42.274;-71.436;2022-10-16T00:41:00;35.93;32.67;22.50
64861;PMS5003;62652;42.274;-71.436;2022-10-16T00:42:00;36.07;32.23;22.43
64861;PMS5003;62652;42.274;-71.436;2022-10-16T00:43:00;27.10;26.50;20.03
64861;PMS5003;62652;42.274;-71.436;2022-10-16T00:44:00;25.17;23.83;18.97
64861;PMS5003;62652;42.274;-71.436;2022-10-16T00:45:00;24.87;23.03;18.33
64861;PMS5003;62652;42.274;-71.436;2022-10-16T00:46:00;22.37;22.30;17.07
64861;PMS5003;62652;42.274;-71.436;2022-10-16T00:47:00;21.37;19.63;15.97
64861;PMS5003;62652;42.274;-71.436;2022-10-16T00:48:00;20.90;20.30;15.90
64861;PMS5003;62652;42.274;-71.436;2022-10-16T00:49:00;20.07;19.87;15.63
64861;PMS5003;62652;42.274;-71.436;2022-10-16T00:50:01;19.57;17.77;14.43
64861;PMS5003;62652;42.274;-71.436;2022-10-16T00:51:00;16.47;16.03;12.13
64861;PMS5003;62652;42.274;-71.436;2022-10-16T00:52:00;17.57;17.03;12.87
64861;PMS5003;62652;42.274;-71.436;2022-10-16T00:53:00;15.83;15.30;13.17
64861;PMS5003;62652;42.274;-71.436;2022-10-16T00:54:00;17.00;16.67;13.67
64861;PMS5003;62652;42.274;-71.436;2022-10-16T00:55:00;17.07;16.60;13.13
64861;PMS5003;62652;42.274;-71.436;2022-10-16T00:56:00;18.10;17.23;14.10
64861;PMS5003;62652;42.274;-71.436;2022-10-16T00:57:01;17.17;16.30;13.37
64861;PMS5003;62652;42.274;-71.436;2022-10-16T00:58:00;17.63;16.93;12.60
64861;PMS5003;62652;42.274;-71.436;2022-10-16T00:59:01;20.37;19.10;14.63
64861;PMS5003;62652;42.274;-71.436;2022-10-16T01:00:00;20.13;19.20;15.73
64861;PMS5003;62652;42.274;-71.436;2022-10-16T01:01:00;22.93;22.50;17.20
64861;PMS5003;62652;42.274;-71.436;2022-10-16T01:02:00;23.07;22.30;17.63
64861;PMS5003;62652;42.274;-71.436;2022-10-16T01:03:01;25.43;23.53;17.53
64861;PMS5003;62652;42.274;-71.436;2022-10-16T01:04:00;27.03;26.60;19.90
64861;PMS5003;62652;42.274;-71.436;2022-10-16T01:05:00;26.80;26.63;19.70
64861;PMS5003;62652;42.274;-71.436;2022-10-16T01:06:04;31.20;27.80;20.80
64861;PMS5003;62652;42.274;-71.436;2022-10-16T01:07:01;23.90;23.90;18.67
64861;PMS5003;62652;42.274;-71.436;2022-10-16T01:08:02;26.57;25.20;19.60
64861;PMS5003;62652;42.274;-71.436;2022-10-16T01:09:03;26.03;24.90;18.67
64861;PMS5003;62652;42.274;-71.436;2022-10-16T01:10:05;24.90;24.23;18.63
64861;PMS5003;62652;42.274;-71.436;2022-10-16T01:11:01;27.53;26.37;20.00
64861;PMS5003;62652;42.274;-71.436;2022-10-16T01:12:02;28.60;27.07;20.10
64861;PMS5003;62652;42.274;-71.436;2022-10-16T01:13:01;23.83;22.90;17.63
64861;PMS5003;62652;42.274;-71.436;2022-10-16T01:14:02;21.10;20.53;16.53
64861;PMS5003;62652;42.274;-71.436;2022-10-16T01:15:02;20.37;20.00;15.60
64861;PMS5003;62652;42.274;-71.436;2022-10-16T01:16:01;14.33;13.87;11.60
64861;PMS5003;62652;42.274;-71.436;2022-10-16T01:17:01;18.03;17.07;13.03
64861;PMS5003;62652;42.274;-71.436;2022-10-16T01:18:01;16.57;16.33;13.47
64861;PMS5003;62652;42.274;-71.436;2022-10-16T01:19:01;17.10;16.07;11.67
64861;PMS5003;62652;42.274;-71.436;2022-10-16T01:20:03;16.13;15.77;12.33
64861;PMS5003;62652;42.274;-71.436;2022-10-16T01:21:01;17.30;16.80;13.67
64861;PMS5003;62652;42.274;-71.436;2022-10-16T01:22:00;19.27;17.57;13.40
64861;PMS5003;62652;42.274;-71.436;2022-10-16T01:23:10;20.17;18.30;14.17
64861;PMS5003;62652;42.274;-71.436;2022-10-16T01:24:01;17.70;17.30;14.53
64861;PMS5003;62652;42.274;-71.436;2022-10-16T01:25:00;22.73;21.97;16.20
64861;PMS5003;62652;42.274;-71.436;2022-10-16T01:26:10;19.37;17.97;13.77
64861;PMS5003;62652;42.274;-71.436;2022-10-16T01:27:03;19.40;18.50;12.97
64861;PMS5003;62652;42.274;-71.436;2022-10-16T01:28:00;17.87;17.43;12.80
64861;PMS5003;62652;42.274;-71.436;2022-10-16T01:29:01;16.63;16.17;13.43
64861;PMS5003;62652;42.274;-71.436;2022-10-16T01:30:02;17.20;16.87;13.57
64861;PMS5003;62652;42.274;-71.436;2022-10-16T01:31:00;15.50;14.87;11.73
64861;PMS5003;62652;42.274;-71.436;2022-10-16T01:32:01;15.47;13.77;10.43
64861;PMS5003;62652;42.274;-71.436;2022-10-16T01:33:01;15.03;14.67;11.00
64861;PMS5003;62652;42.274;-71.436;2022-10-16T01:34:00;15.33;14.97;11.43
64861;PMS5003;62652;42.274;-71.436;2022-10-16T01:35:02;15.87;13.87;11.23
64861;PMS5003;62652;42.274;-71.436;2022-10-16T01:36:01;14.63;14.47;10.77
64861;PMS5003;62652;42.274;-71.436;2022-10-16T01:37:02;16.17;15.43;12.37
64861;PMS5003;62652;42.274;-71.436;2022-10-16T01:38:01;14.67;13.53;11.00
64861;PMS5003;62652;42.274;-71.436;2022-10-16T01:39:00;14.83;14.47;11.17
64861;PMS5003;62652;42.274;-71.436;2022-10-16T01:40:00;15.43;15.43;11.40
64861;PMS5003;62652;42.274;-71.436;2022-10-16T01:41:00;14.03;13.17;10.70
64861;PMS5003;62652;42.274;-71.436;2022-10-16T01:42:01;13.37;13.10;10.20
64861;PMS5003;62652;42.274;-71.436;2022-10-16T01:43:01;15.73;14.67;12.57
64861;PMS5003;62652;42.274;-71.436;2022-10-16T01:44:01;15.80;14.67;11.97
64861;PMS5003;62652;42.274;-71.436;2022-10-16T01:45:00;13.43;12.70;10.37
64861;PMS5003;62652;42.274;-71.436;2022-10-16T01:46:00;15.67;15.30;11.00
64861;PMS5003;62652;42.274;-71.436;2022-10-16T01:47:00;14.10;13.70;11.30
64861;PMS5003;62652;42.274;-71.436;2022-10-16T01:48:00;14.97;14.77;11.47
64861;PMS5003;62652;42.274;-71.436;2022-10-16T01:49:00;15.97;15.93;12.57
64861;PMS5003;62652;42.274;-71.436;2022-10-16T01:50:00;17.13;16.53;13.60
64861;PMS5003;62652;42.274;-71.436;2022-10-16T01:51:01;21.30;21.30;18.40
64861;PMS5003;62652;42.274;-71.436;2022-10-16T01:52:02;27.70;26.73;20.53
64861;PMS5003;62652;42.274;-71.436;2022-10-16T01:53:00;19.23;19.17;15.07
64861;PMS5003;62652;42.274;-71.436;2022-10-16T01:54:01;23.23;22.67;17.90
64861;PMS5003;62652;42.274;-71.436;2022-10-16T01:55:00;31.53;29.90;22.27
64861;PMS5003;62652;42.274;-71.436;2022-10-16T01:56:00;31.07;30.00;22.67
64861;PMS5003;62652;42.274;-71.436;2022-10-16T01:57:00;30.13;28.97;21.10
64861;PMS5003;62652;42.274;-71.436;2022-10-16T01:58:00;31.10;30.10;22.30
64861;PMS5003;62652;42.274;-71.436;2022-10-16T01:59:00;19.90;18.67;15.80
64861;PMS5003;62652;42.274;-71.436;2022-10-16T02:00:00;20.27;19.97;15.93
64861;PMS5003;62652;42.274;-71.436;2022-10-16T02:01:00;21.63;20.83;15.87
64861;PMS5003;62652;42.274;-71.436;2022-10-16T02:02:01;18.90;18.80;15.10
64861;PMS5003;62652;42.274;-71.436;2022-10-16T02:03:00;22.77;21.70;15.83
64861;PMS5003;62652;42.274;-71.436;2022-10-16T02:04:13;21.60;21.13;16.23
64861;PMS5003;62652;42.274;-71.436;2022-10-16T02:05:03;22.10;20.90;17.27
64861;PMS5003;62652;42.274;-71.436;2022-10-16T02:06:00;23.13;21.17;15.80
64861;PMS5003;62652;42.274;-71.436;2022-10-16T02:07:00;22.50;20.33;15.73
64861;PMS5003;62652;42.274;-71.436;2022-10-16T02:08:00;22.63;21.93;16.57
64861;PMS5003;62652;42.274;-71.436;2022-10-16T02:09:00;26.33;25.60;18.43
64861;PMS5003;62652;42.274;-71.436;2022-10-16T02:10:00;23.23;22.67;18.67
64861;PMS5003;62652;42.274;-71.436;2022-10-16T02:11:00;23.47;22.50;18.00
64861;PMS5003;62652;42.274;-71.436;2022-10-16T02:12:01;21.23;21.13;16.90
64861;PMS5003;62652;42.274;-71.436;2022-10-16T02:13:02;20.70;19.60;14.97
64861;PMS5003;62652;42.274;-71.436;2022-10-16T02:14:01;17.93;17.93;15.47
64861;PMS5003;62652;42.274;-71.436;2022-10-16T02:15:00;15.67;15.57;12.63
64861;PMS5003;62652;42.274;-71.436;2022-10-16T02:16:00;17.97;16.97;13.67
64861;PMS5003;62652;42.274;-71.436;2022-10-16T02:17:00;19.37;18.13;14.63
64861;PMS5003;62652;42.274;-71.436;2022-10-16T02:18:00;19.57;17.87;13.33
64861;PMS5003;62652;42.274;-71.436;2022-10-16T02:19:00;19.97;18.77;14.10
64861;PMS5003;62652;42.274;-71.436;2022-10-16T02:20:00;17.57;17.20;13.47
64861;PMS5003;62652;42.274;-71.436;2022-10-16T02:21:01;18.13;18.00;14.57
64861;PMS5003;62652;42.274;-71.436;2022-10-16T02:22:01;17.43;16.33;13.53
64861;PMS5003;62652;42.274;-71.436;2022-10-16T02:23:00;19.40;18.83;13.77
64861;PMS5003;62652;42.274;-71.436;2022-10-16T02:24:02;19.20;18.37;14.07
64861;PMS5003;62652;42.274;-71.436;2022-10-16T02:25:01;18.33;18.27;13.83
64861;PMS5003;62652;42.274;-71.436;2022-10-16T02:26:00;20.67;20.60;15.83
64861;PMS5003;62652;42.274;-71.436;2022-10-16T02:27:02;23.67;22.93;16.83
64861;PMS5003;62652;42.274;-71.436;2022-10-16T02:28:00;20.13;19.67;15.77
64861;PMS5003;62652;42.274;-71.436;2022-10-16T02:29:00;20.17;19.73;15.73
64861;PMS5003;62652;42.274;-71.436;2022-10-16T02:30:02;19.90;19.73;15.60
64861;PMS5003;62652;42.274;-71.436;2022-10-16T02:31:01;19.83;19.37;16.03
64861;PMS5003;62652;42.274;-71.436;2022-10-16T02:32:00;20.07;19.87;16.33
64861;PMS5003;62652;42.274;-71.436;2022-10-16T02:33:00;18.50;17.97;14.93
64861;PMS5003;62652;42.274;-71.436;2022-10-16T02:34:00;20.63;19.80;14.87
64861;PMS5003;62652;42.274;-71.436;2022-10-16T02:35:00;23.47;21.80;16.63
64861;PMS5003;62652;42.274;-71.436;2022-10-16T02:36:00;21.00;20.27;15.90
64861;PMS5003;62652;42.274;-71.436;2022-10-16T02:37:02;19.53;18.70;15.37
64861;PMS5003;62652;42.274;-71.436;2022-10-16T02:38:00;21.33;20.77;16.37
64861;PMS5003;62652;42.274;-71.436;2022-10-16T02:39:00;21.40;20.27;17.60
64861;PMS5003;62652;42.274;-71.436;2022-10-16T02:40:00;23.13;22.77;18.23
64861;PMS5003;62652;42.274;-71.436;2022-10-16T02:41:00;23.57;22.93;18.10
64861;PMS5003;62652;42.274;-71.436;2022-10-16T02:42:00;25.97;24.50;17.37
64861;PMS5003;62652;42.274;-71.436;2022-10-16T02:43:00;24.23;23.77;17.53
64861;PMS5003;62652;42.274;-71.436;2022-10-16T02:44:00;24.40;23.87;17.23
64861;PMS5003;62652;42.274;-71.436;2022-10-16T02:45:00;24.00;23.23;17.50
64861;PMS5003;62652;42.274;-71.436;2022-10-16T02:46:00;23.47;23.47;18.53
64861;PMS5003;62652;42.274;-71.436;2022-10-16T02:47:00;23.13;22.60;17.63
64861;PMS5003;62652;42.274;-71.436;2022-10-16T02:48:00;23.07;21.00;17.17
64861;PMS5003;62652;42.274;-71.436;2022-10-16T02:49:00;24.13;22.40;17.20
64861;PMS5003;62652;42.274;-71.436;2022-10-16T02:50:00;21.97;21.67;17.10
64861;PMS5003;62652;42.274;-71.436;2022-10-16T02:51:00;21.57;19.70;15.50
64861;PMS5003;62652;42.274;-71.436;2022-10-16T02:52:00;21.63;20.77;17.17
64861;PMS5003;62652;42.274;-71.436;2022-10-16T02:53:00;21.13;20.23;15.17
64861;PMS5003;62652;42.274;-71.436;2022-10-16T02:54:00;19.50;18.73;15.27
64861;PMS5003;62652;42.274;-71.436;2022-10-16T02:55:00;20.03;18.50;14.23
64861;PMS5003;62652;42.274;-71.436;2022-10-16T02:56:00;21.10;19.63;15.40
64861;PMS5003;62652;42.274;-71.436;2022-10-16T02:57:00;18.83;18.73;14.97
64861;PMS5003;62652;42.274;-71.436;2022-10-16T02:58:00;19.23;18.27;15.00
64861;PMS5003;62652;42.274;-71.436;2022-10-16T02:59:00;19.70;18.80;15.10
64861;PMS5003;62652;42.274;-71.436;2022-10-16T03:00:00;20.30;18.30;14.20
64861;PMS5003;62652;42.274;-71.436;2022-10-16T03:01:00;19.30;18.50;14.23
64861;PMS5003;62652;42.274;-71.436;2022-10-16T03:02:00;19.80;19.07;13.60
64861;PMS5003;62652;42.274;-71.436;2022-10-16T03:03:00;19.27;18.57;13.70
64861;PMS5003;62652;42.274;-71.436;2022-10-16T03:04:00;21.30;20.13;14.40
64861;PMS5003;62652;42.274;-71.436;2022-10-16T03:05:00;21.17;19.90;15.17
64861;PMS5003;62652;42.274;-71.436;2022-10-16T03:06:00;18.17;18.03;14.00
64861;PMS5003;62652;42.274;-71.436;2022-10-16T03:07:00;17.37;16.83;12.23
64861;PMS5003;62652;42.274;-71.436;2022-10-16T03:08:00;18.03;18.03;13.80
64861;PMS5003;62652;42.274;-71.436;2022-10-16T03:09:00;17.23;16.90;13.13
64861;PMS5003;62652;42.274;-71.436;2022-10-16T03:10:00;17.90;17.50;13.27
64861;PMS5003;62652;42.274;-71.436;2022-10-16T03:11:00;17.60;17.07;12.73
64861;PMS5003;62652;42.274;-71.436;2022-10-16T03:12:00;17.33;16.77;13.60
64861;PMS5003;62652;42.274;-71.436;2022-10-16T03:13:00;17.93;17.43;13.33
64861;PMS5003;62652;42.274;-71.436;2022-10-16T03:14:00;17.53;16.80;13.93
64861;PMS5003;62652;42.274;-71.436;2022-10-16T03:15:00;18.17;17.87;13.67
64861;PMS5003;62652;42.274;-71.436;2022-10-16T03:16:00;20.70;19.83;14.30
64861;PMS5003;62652;42.274;-71.436;2022-10-16T03:17:00;17.03;17.03;13.33
64861;PMS5003;62652;42.274;-71.436;2022-10-16T03:18:00;17.67;17.07;12.53
64861;PMS5003;62652;42.274;-71.436;2022-10-16T03:19:00;18.43;18.07;14.50
64861;PMS5003;62652;42.274;-71.436;2022-10-16T03:20:00;19.10;18.47;14.37
64861;PMS5003;62652;42.274;-71.436;2022-10-16T03:21:00;17.87;17.17;14.40
64861;PMS5003;62652;42.274;-71.436;2022-10-16T03:22:00;19.57;18.50;13.23
64861;PMS5003;62652;42.274;-71.436;2022-10-16T03:23:00;18.23;17.43;13.13
64861;PMS5003;62652;42.274;-71.436;2022-10-16T03:24:00;18.13;17.87;13.37
64861;PMS5003;62652;42.274;-71.436;2022-10-16T03:25:00;19.20;19.13;14.67
64861;PMS5003;62652;42.274;-71.436;2022-10-16T03:26:00;21.43;20.83;14.70
64861;PMS5003;62652;42.274;-71.436;2022-10-16T03:27:00;17.23;17.00;13.93
64861;PMS5003;62652;42.274;-71.436;2022-10-16T03:28:00;20.43;19.40;14.97
64861;PMS5003;62652;42.274;-71.436;2022-10-16T03:29:00;47.63;40.17;26.07
64861;PMS5003;62652;42.274;-71.436;2022-10-16T03:30:00;34.30;30.97;20.60
64861;PMS5003;62652;42.274;-71.436;2022-10-16T03:31:00;44.73;37.70;24.57
64861;PMS5003;62652;42.274;-71.436;2022-10-16T03:32:00;55.37;45.10;29.20
64861;PMS5003;62652;42.274;-71.436;2022-10-16T03:33:00;68.93;56.50;35.87
64861;PMS5003;62652;42.274;-71.436;2022-10-16T03:34:00;61.70;49.60;31.60
64861;PMS5003;62652;42.274;-71.436;2022-10-16T03:35:00;41.17;34.57;23.90
64861;PMS5003;62652;42.274;-71.436;2022-10-16T03:36:00;32.63;30.33;20.30
64861;PMS5003;62652;42.274;-71.436;2022-10-16T03:37:00;21.17;20.70;15.43
64861;PMS5003;62652;42.274;-71.436;2022-10-16T03:38:00;46.20;39.00;27.00
64861;PMS5003;62652;42.274;-71.436;2022-10-16T03:39:00;57.43;46.93;31.00
64861;PMS5003;62652;42.274;-71.436;2022-10-16T03:40:00;49.43;41.17;27.40
64861;PMS5003;62652;42.274;-71.436;2022-10-16T03:41:00;51.73;43.80;29.33
64861;PMS5003;62652;42.274;-71.436;2022-10-16T03:42:00;60.77;48.50;32.70
64861;PMS5003;62652;42.274;-71.436;2022-10-16T03:43:00;41.30;35.67;25.30
64861;PMS5003;62652;42.274;-71.436;2022-10-16T03:44:00;21.60;21.27;17.20
64861;PMS5003;62652;42.274;-71.436;2022-10-16T03:45:00;18.97;18.77;14.10
64861;PMS5003;62652;42.274;-71.436;2022-10-16T03:46:00;18.17;17.77;13.90
64861;PMS5003;62652;42.274;-71.436;2022-10-16T03:47:00;20.83;19.77;15.23
64861;PMS5003;62652;42.274;-71.436;2022-10-16T03:48:00;20.07;19.80;15.70
64861;PMS5003;62652;42.274;-71.436;2022-10-16T03:49:00;19.33;18.80;14.20
64861;PMS5003;62652;42.274;-71.436;2022-10-16T03:50:00;17.17;16.67;13.50
64861;PMS5003;62652;42.274;-71.436;2022-10-16T03:51:00;18.50;17.63;13.30
64861;PMS5003;62652;42.274;-71.436;2022-10-16T03:52:00;16.37;15.67;12.80
64861;PMS5003;62652;42.274;-71.436;2022-10-16T03:53:00;18.43;18.27;14.03
64861;PMS5003;62652;42.274;-71.436;2022-10-16T03:54:00;17.27;15.83;13.90
64861;PMS5003;62652;42.274;-71.436;2022-10-16T03:55:00;21.40;20.50;16.13
64861;PMS5003;62652;42.274;-71.436;2022-10-16T03:56:00;20.83;20.73;15.67
64861;PMS5003;62652;42.274;-71.436;2022-10-16T03:57:00;24.57;23.23;16.10
64861;PMS5003;62652;42.274;-71.436;2022-10-16T03:58:00;26.10;24.10;18.93
64861;PMS5003;62652;42.274;-71.436;2022-10-16T03:59:00;23.97;23.27;16.00
64861;PMS5003;62652;42.274;-71.436;2022-10-16T04:00:00;19.33;19.33;15.00
64861;PMS5003;62652;42.274;-71.436;2022-10-16T04:01:00;19.50;18.50;15.57
64861;PMS5003;62652;42.274;-71.436;2022-10-16T04:02:00;18.00;16.87;11.63
64861;PMS5003;62652;42.274;-71.436;2022-10-16T04:03:00;20.73;19.37;15.10
64861;PMS5003;62652;42.274;-71.436;2022-10-16T04:04:00;18.70;17.47;13.47
64861;PMS5003;62652;42.274;-71.436;2022-10-16T04:05:00;19.13;18.37;14.47
64861;PMS5003;62652;42.274;-71.436;2022-10-16T04:06:00;17.37;16.83;13.67
64861;PMS5003;62652;42.274;-71.436;2022-10-16T04:07:00;16.20;14.50;11.67
64861;PMS5003;62652;42.274;-71.436;2022-10-16T04:08:00;20.27;19.13;15.43
64861;PMS5003;62652;42.274;-71.436;2022-10-16T04:09:00;29.20;29.20;20.00
64861;PMS5003;62652;42.274;-71.436;2022-10-16T04:10:00;26.03;25.07;19.53
64861;PMS5003;62652;42.274;-71.436;2022-10-16T04:11:00;28.30;26.33;19.57
64861;PMS5003;62652;42.274;-71.436;2022-10-16T04:12:00;22.37;21.90;16.43
64861;PMS5003;62652;42.274;-71.436;2022-10-16T04:13:00;17.63;17.33;13.20
64861;PMS5003;62652;42.274;-71.436;2022-10-16T04:14:00;17.73;17.40;14.20
64861;PMS5003;62652;42.274;-71.436;2022-10-16T04:15:00;18.67;18.47;14.30
64861;PMS5003;62652;42.274;-71.436;2022-10-16T04:16:00;19.80;18.73;13.40
64861;PMS5003;62652;42.274;-71.436;2022-10-16T04:17:00;18.17;18.13;14.33
64861;PMS5003;62652;42.274;-71.436;2022-10-16T04:18:00;21.20;20.80;16.73
64861;PMS5003;62652;42.274;-71.436;2022-10-16T04:19:00;25.00;23.30;18.83
64861;PMS5003;62652;42.274;-71.436;2022-10-16T04:20:00;20.33;19.67;15.20
64861;PMS5003;62652;42.274;-71.436;2022-10-16T04:21:02;22.33;21.57;16.50
64861;PMS5003;62652;42.274;-71.436;2022-10-16T04:22:00;17.53;16.80;13.00
64861;PMS5003;62652;42.274;-71.436;2022-10-16T04:23:00;17.63;16.73;13.47
64861;PMS5003;62652;42.274;-71.436;2022-10-16T04:24:00;18.37;17.43;12.40
64861;PMS5003;62652;42.274;-71.436;2022-10-16T04:25:00;17.07;16.23;12.30
64861;PMS5003;62652;42.274;-71.436;2022-10-16T04:26:00;16.60;16.47;12.47
64861;PMS5003;62652;42.274;-71.436;2022-10-16T04:27:00;16.50;16.37;11.63
64861;PMS5003;62652;42.274;-71.436;2022-10-16T04:28:00;15.53;14.90;11.43
64861;PMS5003;62652;42.274;-71.436;2022-10-16T04:29:00;16.23;16.13;12.17
64861;PMS5003;62652;42.274;-71.436;2022-10-16T04:30:00;19.07;17.87;14.40
64861;PMS5003;62652;42.274;-71.436;2022-10-16T04:31:00;18.20;16.40;13.13
64861;PMS5003;62652;42.274;-71.436;2022-10-16T04:32:00;15.07;14.63;13.17
64861;PMS5003;62652;42.274;-71.436;2022-10-16T04:33:00;18.00;17.63;13.93
64861;PMS5003;62652;42.274;-71.436;2022-10-16T04:34:00;15.47;14.97;12.33
64861;PMS5003;62652;42.274;-71.436;2022-10-16T04:35:00;16.60;16.43;12.53
64861;PMS5003;62652;42.274;-71.436;2022-10-16T04:36:00;18.87;18.07;13.63
64861;PMS5003;62652;42.274;-71.436;2022-10-16T04:37:00;16.77;15.17;11.83
64861;PMS5003;62652;42.274;-71.436;2022-10-16T04:38:00;17.67;17.60;12.97
64861;PMS5003;62652;42.274;-71.436;2022-10-16T04:39:00;19.80;19.40;15.40
64861;PMS5003;62652;42.274;-71.436;2022-10-16T04:40:00;23.87;21.97;15.77
64861;PMS5003;62652;42.274;-71.436;2022-10-16T04:41:00;24.27;23.30;17.80
64861;PMS5003;62652;42.274;-71.436;2022-10-16T04:42:00;23.53;22.77;17.50
64861;PMS5003;62652;42.274;-71.436;2022-10-16T04:43:00;21.87;21.33;16.50
64861;PMS5003;62652;42.274;-71.436;2022-10-16T04:44:00;24.53;23.90;17.37
64861;PMS5003;62652;42.274;-71.436;2022-10-16T04:45:00;23.30;22.23;17.10
64861;PMS5003;62652;42.274;-71.436;2022-10-16T04:46:00;20.67;19.97;15.57
64861;PMS5003;62652;42.274;-71.436;2022-10-16T04:47:00;22.60;21.87;16.97
64861;PMS5003;62652;42.274;-71.436;2022-10-16T04:48:00;17.90;17.80;14.00
64861;PMS5003;62652;42.274;-71.436;2022-10-16T04:49:00;19.93;19.37;14.37
64861;PMS5003;62652;42.274;-71.436;2022-10-16T04:50:00;19.50;19.27;15.43
64861;PMS5003;62652;42.274;-71.436;2022-10-16T04:51:00;21.00;19.93;15.07
64861;PMS5003;62652;42.274;-71.436;2022-10-16T04:52:00;20.67;19.67;13.90
64861;PMS5003;62652;42.274;-71.436;2022-10-16T04:53:00;19.83;19.17;14.43
64861;PMS5003;62652;42.274;-71.436;2022-10-16T04:54:00;17.90;17.60;12.73
64861;PMS5003;62652;42.274;-71.436;2022-10-16T04:55:00;18.00;18.00;13.50
64861;PMS5003;62652;42.274;-71.436;2022-10-16T04:56:00;18.70;18.30;14.20
64861;PMS5003;62652;42.274;-71.436;2022-10-16T04:57:00;18.50;18.30;15.07
64861;PMS5003;62652;42.274;-71.436;2022-10-16T04:58:00;17.10;16.73;13.40
64861;PMS5003;62652;42.274;-71.436;2022-10-16T04:59:00;17.63;17.47;14.00
64861;PMS5003;62652;42.274;-71.436;2022-10-16T05:00:00;17.47;16.93;14.43
64861;PMS5003;62652;42.274;-71.436;2022-10-16T05:01:00;20.30;19.03;14.83
64861;PMS5003;62652;42.274;-71.436;2022-10-16T05:02:00;19.77;18.13;14.40
64861;PMS5003;62652;42.274;-71.436;2022-10-16T05:03:00;17.73;16.83;13.37
64861;PMS5003;62652;42.274;-71.436;2022-10-16T05:04:00;18.47;18.03;13.50
64861;PMS5003;62652;42.274;-71.436;2022-10-16T05:05:00;18.83;18.60;14.93
64861;PMS5003;62652;42.274;-71.436;2022-10-16T05:06:00;20.73;20.33;14.70
64861;PMS5003;62652;42.274;-71.436;2022-10-16T05:07:00;18.27;17.53;14.37
64861;PMS5003;62652;42.274;-71.436;2022-10-16T05:08:00;18.80;17.23;14.40
64861;PMS5003;62652;42.274;-71.436;2022-10-16T05:09:00;16.13;16.07;12.67
64861;PMS5003;62652;42.274;-71.436;2022-10-16T05:10:00;18.90;18.30;13.93
64861;PMS5003;62652;42.274;-71.436;2022-10-16T05:11:00;17.47;17.07;12.67
64861;PMS5003;62652;42.274;-71.436;2022-10-16T05:12:00;19.33;17.27;14.03
64861;PMS5003;62652;42.274;-71.436;2022-10-16T05:13:00;18.87;18.23;14.10
64861;PMS5003;62652;42.274;-71.436;2022-10-16T05:14:00;18.80;17.93;13.90
64861;PMS5003;62652;42.274;-71.436;2022-10-16T05:15:00;19.90;19.70;14.43
64861;PMS5003;62652;42.274;-71.436;2022-10-16T05:16:00;21.73;20.73;14.73
64861;PMS5003;62652;42.274;-71.436;2022-10-16T05:17:00;17.33;17.33;13.87
64861;PMS5003;62652;42.274;-71.436;2022-10-16T05:18:00;19.43;18.93;14.93
64861;PMS5003;62652;42.274;-71.436;2022-10-16T05:19:00;21.50;20.97;15.40
64861;PMS5003;62652;42.274;-71.436;2022-10-16T05:20:00;21.93;20.37;15.70
64861;PMS5003;62652;42.274;-71.436;2022-10-16T05:21:00;23.17;21.67;15.53
64861;PMS5003;62652;42.274;-71.436;2022-10-16T05:22:00;21.90;20.73;17.17
64861;PMS5003;62652;42.274;-71.436;2022-10-16T05:23:00;24.00;23.00;16.37
64861;PMS5003;62652;42.274;-71.436;2022-10-16T05:24:00;21.87;21.17;16.27
64861;PMS5003;62652;42.274;-71.436;2022-10-16T05:25:00;24.10;23.10;16.57
64861;PMS5003;62652;42.274;-71.436;2022-10-16T05:26:00;21.50;19.93;15.73